createdAt,value
2018-02-22T00:00:34.107Z,79.90
2018-02-22T00:03:02.432Z,80.09
2018-02-22T00:05:30.753Z,80.07
2018-02-22T00:07:59.409Z,80.18
2018-02-22T00:10:27.768Z,80.30
2018-02-22T00:12:56.143Z,80.33
2018-02-22T00:15:24.490Z,80.24
2018-02-22T00:17:52.786Z,80.29
2018-02-22T00:20:21.231Z,80.19
2018-02-22T00:22:49.664Z,80.26
2018-02-22T00:25:18.092Z,80.17
2018-02-22T00:27:47.244Z,80.30
2018-02-22T00:30:15.628Z,80.29
2018-02-22T00:32:43.941Z,80.37
2018-02-22T00:35:13.864Z,80.24
2018-02-22T00:37:42.209Z,80.46
2018-02-22T00:40:10.585Z,80.39
2018-02-22T00:42:38.966Z,80.47
2018-02-22T00:45:09.162Z,80.37
2018-02-22T00:47:39.218Z,80.68
2018-02-22T00:50:07.507Z,80.65
2018-02-22T00:52:35.880Z,80.72
2018-02-22T00:55:04.210Z,80.81
2018-02-22T00:57:32.539Z,80.67
2018-02-22T01:00:00.955Z,80.69
2018-02-22T01:02:29.293Z,80.69
2018-02-22T01:05:00.234Z,80.63
2018-02-22T01:07:28.612Z,80.70
2018-02-22T01:09:56.925Z,80.85
2018-02-22T01:12:25.320Z,80.47
2018-02-22T01:14:53.726Z,80.48
2018-02-22T01:17:22.328Z,80.70
2018-02-22T01:19:50.743Z,80.68
2018-02-22T01:22:22.682Z,80.70
2018-02-22T01:24:51.090Z,80.60
2018-02-22T01:27:19.378Z,80.86
2018-02-22T01:29:47.952Z,80.88
2018-02-22T01:32:16.331Z,80.68
2018-02-22T01:34:46.500Z,80.87
2018-02-22T01:37:16.462Z,81.04
2018-02-22T01:39:44.886Z,81.17
2018-02-22T01:42:13.235Z,80.92
2018-02-22T01:44:41.552Z,80.86
2018-02-22T01:47:09.917Z,80.82
2018-02-22T01:49:38.245Z,80.64
2018-02-22T01:52:06.654Z,80.68
2018-02-22T01:54:34.942Z,80.41
2018-02-22T01:57:03.588Z,80.49
2018-02-22T01:59:31.953Z,80.39
2018-02-22T02:02:00.990Z,80.35
2018-02-22T02:04:30.996Z,80.36
2018-02-22T02:06:59.487Z,80.35
2018-02-22T02:09:27.796Z,80.26
2018-02-22T02:11:56.110Z,80.07
2018-02-22T02:14:24.495Z,80.02
2018-02-22T02:16:52.824Z,79.93
2018-02-22T02:19:21.177Z,80.13
2018-02-22T02:21:49.496Z,79.99
2018-02-22T02:24:17.831Z,80.12
2018-02-22T02:26:46.162Z,80.13
2018-02-22T02:29:14.594Z,80.26
2018-02-22T02:31:43.702Z,80.32
2018-02-22T02:34:13.082Z,80.40
2018-02-22T02:36:43.114Z,80.53
2018-02-22T02:39:11.461Z,80.46
2018-02-22T02:41:41.775Z,80.49
2018-02-22T02:44:12.497Z,80.42
2018-02-22T02:46:40.852Z,80.69
2018-02-22T02:49:09.220Z,80.57
2018-02-22T02:51:37.523Z,80.34
2018-02-22T02:54:05.873Z,80.39
2018-02-22T02:56:34.159Z,80.36
2018-02-22T02:59:02.480Z,80.33
2018-02-22T03:01:30.781Z,80.48
2018-02-22T03:03:59.142Z,79.96
2018-02-22T03:06:27.452Z,80.28
2018-02-22T03:08:55.855Z,79.95
2018-02-22T03:11:24.182Z,80.04
2018-02-22T03:13:54.973Z,79.90
2018-02-22T03:16:25.751Z,79.93
2018-02-22T03:18:54.131Z,79.97
2018-02-22T03:21:22.434Z,80.00
2018-02-22T03:23:50.822Z,79.94
2018-02-22T03:26:19.142Z,79.79
2018-02-22T03:28:47.531Z,80.10
2018-02-22T03:31:15.822Z,79.68
2018-02-22T03:33:44.140Z,79.80
2018-02-22T03:36:12.465Z,79.77
2018-02-22T03:38:40.851Z,79.91
2018-02-22T03:41:09.267Z,79.85
2018-02-22T03:43:37.585Z,79.79
2018-02-22T03:46:06.060Z,79.54
2018-02-22T03:48:34.342Z,79.63
2018-02-22T03:51:02.775Z,79.45
2018-02-22T03:53:31.083Z,79.59
2018-02-22T03:55:59.408Z,79.79
2018-02-22T03:58:27.734Z,79.42
2018-02-22T04:00:57.978Z,79.74
2018-02-22T04:03:29.701Z,79.69
2018-02-22T04:05:58.037Z,79.50
2018-02-22T04:08:26.326Z,79.36
2018-02-22T04:10:54.651Z,79.37
2018-02-22T04:13:24.693Z,79.23
2018-02-22T04:15:55.199Z,79.21
2018-02-22T04:18:25.721Z,79.09
2018-02-22T04:20:54.100Z,79.16
2018-02-22T04:23:22.469Z,79.33
2018-02-22T04:25:52.527Z,79.68
2018-02-22T04:28:20.996Z,79.86
2018-02-22T04:30:52.036Z,79.91
2018-02-22T04:33:20.525Z,79.91
2018-02-22T04:35:48.862Z,79.99
2018-02-22T04:38:19.459Z,79.68
2018-02-22T04:40:48.009Z,80.07
2018-02-22T04:43:18.577Z,79.29
2018-02-22T04:45:49.353Z,79.15
2018-02-22T04:48:18.098Z,79.31
2018-02-22T04:50:46.583Z,79.70
2018-02-22T04:53:15.031Z,79.58
2018-02-22T04:55:43.539Z,79.59
2018-02-22T04:58:11.897Z,78.98
2018-02-22T05:00:40.166Z,78.92
2018-02-22T05:03:08.644Z,78.78
2018-02-22T05:05:36.958Z,78.74
2018-02-22T05:08:07.011Z,78.48
2018-02-22T05:10:35.634Z,78.64
2018-02-22T05:13:04.010Z,78.57
2018-02-22T05:15:32.480Z,78.87
2018-02-22T05:18:01.724Z,78.75
2018-02-22T05:20:30.078Z,79.35
2018-02-22T05:22:59.488Z,79.51
2018-02-22T05:25:27.909Z,79.78
2018-02-22T05:27:58.314Z,79.95
2018-02-22T05:30:26.714Z,79.71
2018-02-22T05:32:56.692Z,79.71
2018-02-22T05:35:26.988Z,79.94
2018-02-22T05:37:56.296Z,80.14
2018-02-22T05:40:24.605Z,79.96
2018-02-22T05:42:52.910Z,79.47
2018-02-22T05:45:22.280Z,79.52
2018-02-22T05:47:50.678Z,79.57
2018-02-22T05:50:20.794Z,79.23
2018-02-22T05:52:49.175Z,79.06
2018-02-22T05:55:17.527Z,78.92
2018-02-22T05:57:45.807Z,78.52
2018-02-22T06:00:14.215Z,78.64
2018-02-22T06:02:43.240Z,79.10
2018-02-22T06:05:13.372Z,78.92
2018-02-22T06:07:42.497Z,79.05
2018-02-22T06:10:13.577Z,79.15
2018-02-22T06:12:41.890Z,78.95
2018-02-22T06:15:10.362Z,78.71
2018-02-22T06:17:38.950Z,78.59
2018-02-22T06:20:07.262Z,78.89
2018-02-22T06:22:35.604Z,78.81
2018-02-22T06:25:03.904Z,79.10
2018-02-22T06:27:32.433Z,78.78
2018-02-22T06:30:00.737Z,79.03
2018-02-22T06:32:29.752Z,78.99
2018-02-22T06:34:58.144Z,78.94
2018-02-22T06:37:26.626Z,78.96
2018-02-22T06:39:54.993Z,78.91
2018-02-22T06:42:23.282Z,79.35
2018-02-22T06:44:54.764Z,78.92
2018-02-22T06:47:27.744Z,78.91
2018-02-22T06:49:56.193Z,78.83
2018-02-22T06:52:24.535Z,79.01
2018-02-22T06:54:52.819Z,78.85
2018-02-22T06:57:21.166Z,79.03
2018-02-22T06:59:49.533Z,78.63
2018-02-22T07:02:17.920Z,78.92
2018-02-22T07:04:46.355Z,78.72
2018-02-22T07:07:14.708Z,78.61
2018-02-22T07:09:43.052Z,78.73
2018-02-22T07:12:11.680Z,78.55
2018-02-22T07:14:39.976Z,78.38
2018-02-22T07:17:09.960Z,78.53
2018-02-22T07:19:38.324Z,78.29
2018-02-22T07:22:06.774Z,78.04
2018-02-22T07:24:39.035Z,78.17
2018-02-22T07:27:08.608Z,78.22
2018-02-22T07:29:38.022Z,78.17
2018-02-22T07:32:08.080Z,77.79
2018-02-22T07:34:36.528Z,77.72
2018-02-22T07:37:04.982Z,78.17
2018-02-22T07:39:33.296Z,77.71
2018-02-22T07:42:01.637Z,78.06
2018-02-22T07:44:30.084Z,77.95
2018-02-22T07:46:58.494Z,77.48
2018-02-22T07:49:28.826Z,77.46
2018-02-22T07:52:00.439Z,77.56
2018-02-22T07:54:28.757Z,77.57
2018-02-22T07:56:57.230Z,77.22
2018-02-22T07:59:25.678Z,77.05
2018-02-22T08:01:57.814Z,76.91
2018-02-22T08:04:26.313Z,77.43
2018-02-22T08:06:54.706Z,77.08
2018-02-22T08:09:23.090Z,77.13
2018-02-22T08:11:51.435Z,76.49
2018-02-22T08:14:19.922Z,77.00
2018-02-22T08:16:48.250Z,76.68
2018-02-22T08:19:16.557Z,76.87
2018-02-22T08:21:44.909Z,76.53
2018-02-22T08:24:13.207Z,76.13
2018-02-22T08:26:41.601Z,76.34
2018-02-22T08:29:09.909Z,76.66
2018-02-22T08:31:38.260Z,76.98
2018-02-22T08:34:08.336Z,76.87
2018-02-22T08:36:36.711Z,76.57
2018-02-22T08:39:05.038Z,76.37
2018-02-22T08:41:33.338Z,76.56
2018-02-22T08:44:02.397Z,76.98
2018-02-22T08:46:30.741Z,76.59
2018-02-22T08:48:59.071Z,76.40
2018-02-22T08:51:28.657Z,76.77
2018-02-22T08:53:57.816Z,76.33
2018-02-22T08:56:27.152Z,76.33
2018-02-22T08:58:55.456Z,76.43
2018-02-22T09:01:25.020Z,76.38
2018-02-22T09:03:53.488Z,76.24
2018-02-22T09:06:21.898Z,76.37
2018-02-22T09:08:51.072Z,76.13
2018-02-22T09:11:19.394Z,75.75
2018-02-22T09:13:49.399Z,75.62
2018-02-22T09:16:17.824Z,75.06
2018-02-22T09:18:46.171Z,74.82
2018-02-22T09:21:14.495Z,73.74
2018-02-22T09:23:44.695Z,73.20
2018-02-22T09:26:14.670Z,72.89
2018-02-22T09:28:46.025Z,73.04
2018-02-22T09:31:17.096Z,72.39
2018-02-22T09:33:45.647Z,71.71
2018-02-22T09:36:14.124Z,71.83
2018-02-22T09:38:42.605Z,72.01
2018-02-22T09:41:10.985Z,71.96
2018-02-22T09:46:09.672Z,71.48
2018-02-22T09:48:37.995Z,71.06
2018-02-22T09:51:06.380Z,70.89
2018-02-22T09:53:36.297Z,71.17
2018-02-22T09:56:04.731Z,70.61
2018-02-22T09:58:33.041Z,70.86
2018-02-22T10:01:01.385Z,70.88
2018-02-22T10:03:30.479Z,70.79
2018-02-22T10:05:59.609Z,70.08
2018-02-22T10:08:30.514Z,69.45
2018-02-22T10:10:58.968Z,69.90
2018-02-22T10:13:27.307Z,68.85
2018-02-22T10:15:55.667Z,69.07
2018-02-22T10:18:23.993Z,69.67
2018-02-22T10:20:53.075Z,69.34
2018-02-22T10:23:21.431Z,69.77
2018-02-22T10:25:52.694Z,69.97
2018-02-22T10:28:20.987Z,69.81
2018-02-22T10:30:49.334Z,68.37
2018-02-22T10:33:17.643Z,68.25
2018-02-22T10:35:46.077Z,68.09
2018-02-22T10:38:14.450Z,67.96
2018-02-22T10:40:42.882Z,67.83
2018-02-22T10:43:11.199Z,67.15
2018-02-22T10:45:39.565Z,67.23
2018-02-22T10:48:08.022Z,67.44
2018-02-22T10:50:36.371Z,66.97
2018-02-22T10:53:04.745Z,67.19
2018-02-22T10:55:33.201Z,66.54
2018-02-22T10:58:01.562Z,66.87
2018-02-22T11:00:35.433Z,66.66
2018-02-22T11:03:03.857Z,67.20
2018-02-22T11:05:32.948Z,66.51
2018-02-22T11:08:03.013Z,65.64
2018-02-22T11:10:31.504Z,66.25
2018-02-22T11:12:59.823Z,65.43
2018-02-22T11:15:28.272Z,65.58
2018-02-22T11:17:58.291Z,65.56
2018-02-22T11:20:28.355Z,65.54
2018-02-22T11:22:57.464Z,66.03
2018-02-22T11:25:25.763Z,65.85
2018-02-22T11:27:54.121Z,65.96
2018-02-22T11:30:22.474Z,65.83
2018-02-22T11:32:50.950Z,66.30
2018-02-22T11:35:19.332Z,65.75
2018-02-22T11:37:47.704Z,65.97
2018-02-22T11:40:16.051Z,65.99
2018-02-22T11:42:45.253Z,66.03
2018-02-22T11:45:13.664Z,67.12
2018-02-22T11:47:42.152Z,66.10
2018-02-22T11:50:12.156Z,66.02
2018-02-22T11:52:41.215Z,66.91
2018-02-22T11:55:09.626Z,66.97
2018-02-22T11:57:37.910Z,66.87
2018-02-22T12:00:06.227Z,66.75
2018-02-22T12:02:34.526Z,66.50
2018-02-22T12:05:02.797Z,67.15
2018-02-22T12:07:33.669Z,66.75
2018-02-22T12:10:02.090Z,66.60
2018-02-22T12:12:30.807Z,66.50
2018-02-22T12:15:02.274Z,66.42
2018-02-22T12:17:32.347Z,65.87
2018-02-22T12:20:00.828Z,66.07
2018-02-22T12:22:32.215Z,65.21
2018-02-22T12:25:00.542Z,64.69
2018-02-22T12:27:29.739Z,64.55
2018-02-22T12:29:58.129Z,65.67
2018-02-22T12:32:26.492Z,65.52
2018-02-22T12:34:54.872Z,65.06
2018-02-22T12:37:23.208Z,63.69
2018-02-22T12:39:51.593Z,63.82
2018-02-22T12:42:20.639Z,64.15
2018-02-22T12:44:48.925Z,63.55
2018-02-22T12:47:17.301Z,62.97
2018-02-22T12:49:45.620Z,63.41
2018-02-22T12:52:13.980Z,63.95
2018-02-22T12:54:42.360Z,63.15
2018-02-22T12:57:10.774Z,63.32
2018-02-22T12:59:41.777Z,63.48
2018-02-22T13:02:10.130Z,63.08
2018-02-22T13:04:40.116Z,62.38
2018-02-22T13:07:11.494Z,62.33
2018-02-22T13:09:39.992Z,62.32
2018-02-22T13:12:08.424Z,62.25
2018-02-22T13:14:38.354Z,62.61
2018-02-22T13:17:06.852Z,62.35
2018-02-22T13:19:35.205Z,62.92
2018-02-22T13:22:03.641Z,62.30
2018-02-22T13:24:32.059Z,62.83
2018-02-22T13:27:02.202Z,62.58
2018-02-22T13:29:35.879Z,62.37
2018-02-22T13:32:04.273Z,61.93
2018-02-22T13:34:35.482Z,62.08
2018-02-22T13:37:15.378Z,62.91
2018-02-22T13:39:43.868Z,62.47
2018-02-22T13:42:12.224Z,62.74
2018-02-22T13:44:52.502Z,61.82
2018-02-22T13:47:21.622Z,62.87
2018-02-22T13:50:03.940Z,61.87
2018-02-22T13:52:32.287Z,62.22
2018-02-22T13:55:05.265Z,62.12
2018-02-22T13:57:33.804Z,62.56
2018-02-22T14:00:03.013Z,62.97
2018-02-22T14:02:31.361Z,62.12
2018-02-22T14:04:59.738Z,61.68
2018-02-22T14:07:28.055Z,61.74
2018-02-22T14:09:56.524Z,62.40
2018-02-22T14:12:24.836Z,62.42
2018-02-22T14:14:53.180Z,61.59
2018-02-22T14:17:23.261Z,61.69
2018-02-22T14:19:51.678Z,61.96
2018-02-22T14:22:20.024Z,61.66
2018-02-22T14:24:49.107Z,62.41
2018-02-22T14:27:17.482Z,62.89
2018-02-22T14:29:45.768Z,62.96
2018-02-22T14:32:14.103Z,62.41
2018-02-22T14:34:44.978Z,62.30
2018-02-22T14:37:14.178Z,62.76
2018-02-22T14:39:42.558Z,62.83
2018-02-22T14:42:10.881Z,62.39
2018-02-22T14:44:39.244Z,62.86
2018-02-22T14:47:07.528Z,62.84
2018-02-22T14:49:35.868Z,63.13
2018-02-22T14:52:06.811Z,63.67
2018-02-22T14:54:35.224Z,63.88
2018-02-22T14:57:05.410Z,63.93
2018-02-22T14:59:33.923Z,64.68
2018-02-22T15:02:02.310Z,64.70
2018-02-22T15:04:30.755Z,65.42
2018-02-22T15:06:59.085Z,65.35
2018-02-22T15:09:29.253Z,65.67
2018-02-22T15:12:00.246Z,65.53
2018-02-22T15:14:30.619Z,65.07
2018-02-22T15:17:01.523Z,66.51
2018-02-22T15:19:29.987Z,65.93
2018-02-22T15:22:01.715Z,65.74
2018-02-22T15:24:30.225Z,65.98
2018-02-22T15:26:58.637Z,66.07
2018-02-22T15:29:26.997Z,64.81
2018-02-22T15:32:00.222Z,65.42
2018-02-22T15:34:30.491Z,65.84
2018-02-22T15:37:01.539Z,66.21
2018-02-22T15:39:30.339Z,66.22
2018-02-22T15:41:59.791Z,66.47
2018-02-22T15:44:28.150Z,66.67
2018-02-22T15:46:57.407Z,66.93
2018-02-22T15:49:25.869Z,66.68
2018-02-22T15:51:56.861Z,66.56
2018-02-22T15:54:27.912Z,67.06
2018-02-22T15:56:58.133Z,67.26
2018-02-22T15:59:26.521Z,67.34
2018-02-22T16:01:57.339Z,67.83
2018-02-22T16:04:26.589Z,67.61
2018-02-22T16:06:55.125Z,68.65
2018-02-22T16:09:26.087Z,68.20
2018-02-22T16:11:54.525Z,69.05
2018-02-22T16:14:22.939Z,69.69
2018-02-22T16:16:52.486Z,70.41
2018-02-22T16:19:20.801Z,70.99
2018-02-22T16:21:49.176Z,71.68
2018-02-22T16:24:19.265Z,71.97
2018-02-22T16:26:47.695Z,71.94
2018-02-22T16:29:18.806Z,72.26
2018-02-22T16:31:47.191Z,71.96
2018-02-22T16:34:16.509Z,72.17
2018-02-22T16:36:44.961Z,73.16
2018-02-22T16:39:14.342Z,73.14
2018-02-22T16:41:42.768Z,73.31
2018-02-22T16:44:11.142Z,73.43
2018-02-22T16:46:39.540Z,73.71
2018-02-22T16:49:07.991Z,73.71
2018-02-22T16:51:38.224Z,73.80
2018-02-22T16:54:08.935Z,73.79
2018-02-22T16:56:37.265Z,74.22
2018-02-22T16:59:05.833Z,74.22
2018-02-22T17:01:34.166Z,74.46
2018-02-22T17:04:02.517Z,74.92
2018-02-22T17:06:30.864Z,75.42
2018-02-22T17:08:59.376Z,76.32
2018-02-22T17:11:27.766Z,76.96
2018-02-22T17:13:56.192Z,77.30
2018-02-22T17:16:24.585Z,77.64
2018-02-22T17:18:52.866Z,77.79
2018-02-22T17:21:21.213Z,78.37
2018-02-22T17:23:49.606Z,79.11
2018-02-22T17:26:23.496Z,79.37
2018-02-22T17:28:57.341Z,79.99
2018-02-22T17:31:31.550Z,80.47
2018-02-22T17:33:59.934Z,80.89
2018-02-22T17:36:28.297Z,81.92
2018-02-22T17:39:02.253Z,82.80
2018-02-22T17:41:41.594Z,83.38
2018-02-22T17:44:09.996Z,84.16
2018-02-22T17:46:38.516Z,84.80
2018-02-22T17:49:07.001Z,85.38
2018-02-22T17:51:35.362Z,85.98
2018-02-22T17:54:05.347Z,86.66
2018-02-22T17:56:36.464Z,87.09
2018-02-22T17:59:05.561Z,87.20
2018-02-22T18:01:33.874Z,87.78
2018-02-22T18:04:04.083Z,88.08
2018-02-22T18:06:32.467Z,88.21
2018-02-22T18:09:00.865Z,88.19
2018-02-22T18:11:29.270Z,88.18
2018-02-22T18:13:57.630Z,88.21
2018-02-22T18:16:25.971Z,88.15
2018-02-22T18:18:54.288Z,88.24
2018-02-22T18:21:24.390Z,88.27
2018-02-22T18:23:54.115Z,88.53
2018-02-22T18:26:22.538Z,88.68
2018-02-22T18:28:50.950Z,88.77
2018-02-22T18:31:19.657Z,88.84
2018-02-22T18:33:50.149Z,88.99
2018-02-22T18:36:19.228Z,89.06
2018-02-22T18:38:53.105Z,89.12
2018-02-22T18:41:23.679Z,89.06
2018-02-22T18:46:56.983Z,88.71
2018-02-22T18:49:26.377Z,88.60
2018-02-22T18:51:54.780Z,88.78
2018-02-22T18:54:25.774Z,88.74
2018-02-22T18:56:56.198Z,88.76
2018-02-22T18:59:25.323Z,88.90
2018-02-22T19:01:53.647Z,89.04
2018-02-22T19:04:22.093Z,89.24
2018-02-22T19:06:50.620Z,89.51
2018-02-22T19:09:19.158Z,89.67
2018-02-22T19:11:50.679Z,89.90
2018-02-22T19:14:19.212Z,89.99
2018-02-22T19:16:47.596Z,90.07
2018-02-22T19:19:17.770Z,89.97
2018-02-22T19:24:42.487Z,89.77
2018-02-22T19:27:13.004Z,89.80
2018-02-22T19:29:43.580Z,89.68
2018-02-22T19:32:11.927Z,89.13
2018-02-22T19:34:42.008Z,88.64
2018-02-22T19:40:13.538Z,88.89
2018-02-22T19:42:42.157Z,88.87
2018-02-22T19:45:10.540Z,88.87
2018-02-22T19:47:39.084Z,88.95
2018-02-22T19:50:07.451Z,89.04
2018-02-22T19:52:36.063Z,89.06
2018-02-22T19:55:05.386Z,89.08
2018-02-22T19:57:33.916Z,89.14
2018-02-22T20:00:03.757Z,89.10
2018-02-22T20:02:32.241Z,89.11
2018-02-22T20:05:01.751Z,89.04
2018-02-22T20:07:30.357Z,88.92
2018-02-22T20:10:01.692Z,88.97
2018-02-22T20:12:30.310Z,88.95
2018-02-22T20:15:00.666Z,89.13
2018-02-22T20:17:32.468Z,89.03
2018-02-22T20:20:03.625Z,89.07
2018-02-22T20:22:32.277Z,88.88
2018-02-22T20:25:02.897Z,88.83
2018-02-22T20:27:33.012Z,88.91
2018-02-22T20:30:02.912Z,89.13
2018-02-22T20:32:31.436Z,89.03
2018-02-22T20:34:59.813Z,88.98
2018-02-22T20:37:28.265Z,88.93
2018-02-22T20:39:58.517Z,88.86
2018-02-22T20:42:29.249Z,88.91
2018-02-22T20:44:59.540Z,88.98
2018-02-22T20:47:28.937Z,89.00
2018-02-22T20:49:58.136Z,89.04
2018-02-22T20:55:44.671Z,88.93
2018-02-22T20:58:15.614Z,88.95
2018-02-22T21:00:44.074Z,88.97
2018-02-22T21:03:13.130Z,88.87
2018-02-22T21:05:41.576Z,88.74
2018-02-22T21:08:09.874Z,88.66
2018-02-22T21:10:38.272Z,88.59
2018-02-22T21:13:06.628Z,88.55
2018-02-22T21:15:35.062Z,88.68
2018-02-22T21:18:05.269Z,88.91
2018-02-22T21:20:33.629Z,88.99
2018-02-22T21:23:01.932Z,89.17
2018-02-22T21:25:30.271Z,89.24
2018-02-22T21:27:58.803Z,89.23
2018-02-22T21:30:27.284Z,89.15
2018-02-22T21:32:55.645Z,89.06
2018-02-22T21:35:24.003Z,89.18
2018-02-22T21:37:52.513Z,89.18
2018-02-22T21:40:22.626Z,89.29
2018-02-22T21:42:51.001Z,89.58
2018-02-22T21:45:21.031Z,89.75
2018-02-22T21:47:49.420Z,89.79
2018-02-22T21:50:19.587Z,89.76
2018-02-22T21:52:49.588Z,89.68
2018-02-22T21:55:18.115Z,89.66
2018-02-22T21:57:46.555Z,89.57
2018-02-22T22:00:15.009Z,89.44
2018-02-22T22:02:43.457Z,89.40
2018-02-22T22:05:11.989Z,89.43
2018-02-22T22:07:40.436Z,89.08
2018-02-22T22:10:08.826Z,88.91
2018-02-22T22:12:37.279Z,88.80
2018-02-22T22:15:06.604Z,88.80
2018-02-22T22:17:35.086Z,88.65
2018-02-22T22:20:05.041Z,88.56
2018-02-22T22:22:36.988Z,88.49
2018-02-22T22:25:05.381Z,88.31
2018-02-22T22:27:33.778Z,88.18
2018-02-22T22:30:02.192Z,88.13
2018-02-22T22:32:31.344Z,88.15
2018-02-22T22:35:00.728Z,88.20
2018-02-22T22:37:30.154Z,88.06
2018-02-22T22:39:58.943Z,87.89
2018-02-22T22:42:27.276Z,87.85
2018-02-22T22:44:55.752Z,87.75
2018-02-22T22:47:24.803Z,87.58
2018-02-22T22:49:53.917Z,87.18
2018-02-22T22:52:22.267Z,87.00
2018-02-22T22:54:50.597Z,86.99
2018-02-22T22:57:19.105Z,86.90
2018-02-22T22:59:47.504Z,86.93
2018-02-22T23:02:15.899Z,86.74
2018-02-22T23:04:46.001Z,86.51
2018-02-22T23:07:14.330Z,86.39
2018-02-22T23:09:42.683Z,86.31
2018-02-22T23:12:11.290Z,86.07
2018-02-22T23:14:39.618Z,86.01
2018-02-22T23:17:07.922Z,85.72
2018-02-22T23:19:36.272Z,85.72
2018-02-22T23:22:04.635Z,85.86
2018-02-22T23:24:32.999Z,85.97
2018-02-22T23:27:02.088Z,85.92
2018-02-22T23:29:31.298Z,85.71
2018-02-22T23:31:59.687Z,85.73
2018-02-22T23:34:30.623Z,85.95
2018-02-22T23:36:58.965Z,85.95
2018-02-22T23:39:27.326Z,86.10
2018-02-22T23:42:01.385Z,86.10
2018-02-22T23:44:33.654Z,86.38
2018-02-22T23:47:02.144Z,86.15
2018-02-22T23:49:30.525Z,86.19
2018-02-22T23:52:00.743Z,86.36
2018-02-22T23:54:31.378Z,86.40
2018-02-22T23:56:59.702Z,86.39
2018-02-22T23:59:28.011Z,86.35
